createdAt,value
2023-01-10T00:00:01.607Z,56.60
2023-01-10T00:01:08.372Z,56.63
2023-01-10T00:02:11.341Z,56.64
2023-01-10T00:03:14.365Z,56.63
2023-01-10T00:04:17.340Z,56.66
2023-01-10T00:05:20.450Z,56.61
2023-01-10T00:06:23.495Z,56.71
2023-01-10T00:07:26.431Z,56.63
2023-01-10T00:08:29.373Z,56.65
2023-01-10T00:09:32.529Z,56.66
2023-01-10T00:10:35.647Z,56.76
2023-01-10T00:11:57.051Z,56.74
2023-01-10T00:13:18.534Z,56.74
2023-01-10T00:14:21.529Z,56.85
2023-01-10T00:15:24.481Z,56.84
2023-01-10T00:16:27.553Z,56.85
2023-01-10T00:17:30.500Z,56.75
2023-01-10T00:18:33.506Z,56.87
2023-01-10T00:19:36.657Z,56.79
2023-01-10T00:20:39.602Z,56.79
2023-01-10T00:21:42.681Z,56.83
2023-01-10T00:22:45.753Z,56.80
2023-01-10T00:23:48.826Z,56.84
2023-01-10T00:24:52.063Z,56.93
2023-01-10T00:25:55.120Z,56.92
2023-01-10T00:26:58.873Z,56.96
2023-01-10T00:28:12.951Z,56.99
2023-01-10T00:29:17.989Z,57.04
2023-01-10T00:30:21.292Z,56.97
2023-01-10T00:31:24.337Z,57.10
2023-01-10T00:32:27.489Z,57.08
2023-01-10T00:33:33.785Z,57.08
2023-01-10T00:34:37.007Z,57.01
2023-01-10T00:35:40.067Z,57.00
2023-01-10T00:36:44.922Z,57.08
2023-01-10T00:37:48.205Z,57.20
2023-01-10T00:38:51.350Z,57.22
2023-01-10T00:39:54.413Z,57.15
2023-01-10T00:40:57.586Z,57.17
2023-01-10T00:42:19.036Z,57.25
2023-01-10T00:43:40.362Z,57.26
2023-01-10T00:44:45.367Z,57.18
2023-01-10T00:45:48.736Z,57.21
2023-01-10T00:46:52.830Z,57.28
2023-01-10T00:47:55.952Z,57.25
2023-01-10T00:48:58.985Z,57.36
2023-01-10T00:50:03.816Z,57.30
2023-01-10T00:51:07.063Z,57.46
2023-01-10T00:52:10.175Z,57.45
2023-01-10T00:53:13.220Z,57.30
2023-01-10T00:54:16.167Z,57.30
2023-01-10T00:55:19.333Z,57.34
2023-01-10T00:56:22.317Z,57.25
2023-01-10T00:57:25.267Z,57.27
2023-01-10T00:58:28.416Z,57.40
2023-01-10T00:59:31.359Z,57.33
2023-01-10T01:00:34.281Z,57.43
2023-01-10T01:01:37.437Z,57.47
2023-01-10T01:02:40.410Z,57.44
2023-01-10T01:03:43.427Z,57.43
2023-01-10T01:04:46.365Z,57.37
2023-01-10T01:05:49.400Z,57.40
2023-01-10T01:06:52.348Z,57.52
2023-01-10T01:07:55.392Z,57.40
2023-01-10T01:08:58.441Z,57.45
2023-01-10T01:10:19.972Z,57.53
2023-01-10T01:11:23.059Z,57.54
2023-01-10T01:12:26.200Z,57.56
2023-01-10T01:13:29.282Z,57.58
2023-01-10T01:14:32.313Z,57.45
2023-01-10T01:15:35.702Z,57.48
2023-01-10T01:16:38.885Z,57.56
2023-01-10T01:17:42.052Z,57.46
2023-01-10T01:18:45.099Z,57.60
2023-01-10T01:19:48.050Z,57.51
2023-01-10T01:20:56.321Z,57.54
2023-01-10T01:21:59.299Z,57.65
2023-01-10T01:23:02.256Z,57.54
2023-01-10T01:24:05.504Z,57.53
2023-01-10T01:25:09.204Z,57.62
2023-01-10T01:26:12.331Z,57.64
2023-01-10T01:27:15.409Z,57.53
2023-01-10T01:28:18.341Z,57.62
2023-01-10T01:29:21.537Z,57.63
2023-01-10T01:30:24.634Z,57.53
2023-01-10T01:31:27.617Z,57.48
2023-01-10T01:32:31.098Z,57.52
2023-01-10T01:33:34.455Z,57.53
2023-01-10T01:34:37.728Z,57.52
2023-01-10T01:35:46.015Z,57.56
2023-01-10T01:36:50.949Z,57.50
2023-01-10T01:37:53.854Z,57.51
2023-01-10T01:38:56.718Z,57.48
2023-01-10T01:39:59.715Z,57.47
2023-01-10T01:41:02.761Z,57.42
2023-01-10T01:42:06.085Z,57.46
2023-01-10T01:43:24.394Z,57.58
2023-01-10T01:44:37.095Z,57.51
2023-01-10T01:45:40.434Z,57.59
2023-01-10T01:46:47.021Z,57.59
2023-01-10T01:48:02.336Z,57.67
2023-01-10T01:49:07.677Z,57.76
2023-01-10T01:50:20.334Z,57.73
2023-01-10T01:51:26.690Z,57.59
2023-01-10T01:52:34.111Z,57.73
2023-01-10T01:53:40.771Z,57.75
2023-01-10T01:54:43.763Z,57.82
2023-01-10T01:55:47.333Z,57.87
2023-01-10T01:56:53.843Z,57.93
2023-01-10T01:57:59.933Z,57.86
2023-01-10T01:59:07.148Z,57.89
2023-01-10T02:00:11.741Z,58.01
2023-01-10T02:01:16.453Z,58.04
2023-01-10T02:02:32.069Z,58.02
2023-01-10T02:03:36.148Z,57.91
2023-01-10T02:04:44.553Z,58.04
2023-01-10T02:05:47.634Z,57.92
2023-01-10T02:06:53.968Z,58.00
2023-01-10T02:07:59.293Z,58.04
2023-01-10T02:09:24.055Z,58.04
2023-01-10T02:10:48.785Z,58.08
2023-01-10T02:11:51.746Z,58.07
2023-01-10T02:12:57.660Z,58.04
2023-01-10T02:14:03.111Z,58.15
2023-01-10T02:15:06.597Z,58.17
2023-01-10T02:16:10.943Z,58.23
2023-01-10T02:17:13.962Z,58.22
2023-01-10T02:18:17.733Z,58.13
2023-01-10T02:19:36.239Z,58.14
2023-01-10T02:20:48.913Z,58.21
2023-01-10T02:22:01.297Z,58.14
2023-01-10T02:23:24.358Z,58.25
2023-01-10T02:24:43.151Z,58.14
2023-01-10T02:26:13.907Z,58.17
2023-01-10T02:27:24.207Z,58.24
2023-01-10T02:28:53.545Z,58.41
2023-01-10T02:30:16.888Z,58.37
2023-01-10T02:31:56.765Z,58.44
2023-01-10T02:34:31.656Z,58.67
2023-01-10T02:35:47.097Z,58.59
2023-01-10T02:37:05.745Z,58.65
2023-01-10T02:38:12.229Z,58.78
2023-01-10T02:39:46.111Z,58.68
2023-01-10T02:41:07.886Z,58.70
2023-01-10T02:42:17.309Z,58.77
2023-01-10T02:43:26.621Z,58.75
2023-01-10T02:44:44.791Z,58.73
2023-01-10T02:46:06.352Z,58.72
2023-01-10T02:47:09.599Z,58.60
2023-01-10T02:48:12.950Z,58.62
2023-01-10T02:49:15.908Z,58.73
2023-01-10T02:50:28.439Z,58.73
2023-01-10T02:51:32.975Z,58.72
2023-01-10T02:52:36.125Z,58.57
2023-01-10T02:53:45.484Z,58.55
2023-01-10T02:54:50.847Z,58.53
2023-01-10T02:56:14.169Z,58.53
2023-01-10T02:57:41.582Z,58.64
2023-01-10T02:59:00.426Z,58.60
2023-01-10T03:00:25.522Z,58.61
2023-01-10T03:01:55.152Z,58.58
2023-01-10T03:03:10.557Z,58.45
2023-01-10T03:04:29.074Z,58.69
2023-01-10T03:06:55.814Z,58.77
2023-01-10T03:08:17.129Z,58.76
2023-01-10T03:09:35.543Z,58.69
2023-01-10T03:10:48.416Z,58.71
2023-01-10T03:11:54.988Z,58.71
2023-01-10T03:13:07.401Z,58.81
2023-01-10T03:14:22.767Z,58.69
2023-01-10T03:15:29.382Z,58.65
2023-01-10T03:16:35.623Z,58.65
2023-01-10T03:17:40.127Z,58.74
2023-01-10T03:18:46.633Z,58.53
2023-01-10T03:19:53.853Z,58.64
2023-01-10T03:20:59.284Z,58.64
2023-01-10T03:22:03.857Z,58.62
2023-01-10T03:23:06.927Z,58.60
2023-01-10T03:24:16.831Z,58.61
2023-01-10T03:25:22.587Z,58.47
2023-01-10T03:26:29.229Z,58.48
2023-01-10T03:27:54.016Z,58.49
2023-01-10T03:29:03.073Z,58.42
2023-01-10T03:30:28.068Z,58.41
2023-01-10T03:31:46.603Z,58.39
2023-01-10T03:32:49.566Z,58.36
2023-01-10T03:33:52.525Z,58.34
2023-01-10T03:34:57.141Z,58.23
2023-01-10T03:36:22.500Z,58.29
2023-01-10T03:37:38.015Z,58.34
2023-01-10T03:38:47.389Z,58.26
2023-01-10T03:40:09.483Z,58.37
2023-01-10T03:41:18.817Z,58.42
2023-01-10T03:42:25.338Z,58.37
2023-01-10T03:43:53.157Z,58.43
2023-01-10T03:44:59.680Z,58.30
2023-01-10T03:46:12.062Z,58.33
2023-01-10T03:47:30.817Z,58.27
2023-01-10T03:48:36.884Z,58.40
2023-01-10T03:49:42.189Z,58.39
2023-01-10T03:50:46.696Z,58.26
2023-01-10T03:51:50.564Z,58.27
2023-01-10T03:52:53.486Z,58.42
2023-01-10T03:54:01.781Z,58.33
2023-01-10T03:55:06.178Z,58.40
2023-01-10T03:56:14.702Z,58.26
2023-01-10T03:57:20.705Z,58.23
2023-01-10T03:58:23.775Z,58.19
2023-01-10T03:59:28.816Z,58.18
2023-01-10T04:00:32.130Z,58.13
2023-01-10T04:01:35.228Z,58.16
2023-01-10T04:02:38.214Z,58.14
2023-01-10T04:03:41.394Z,58.10
2023-01-10T04:04:44.336Z,58.15
2023-01-10T04:05:47.497Z,58.05
2023-01-10T04:06:50.460Z,58.10
2023-01-10T04:07:53.422Z,57.99
2023-01-10T04:08:56.471Z,58.10
2023-01-10T04:09:59.630Z,57.96
2023-01-10T04:11:03.779Z,58.02
2023-01-10T04:12:06.923Z,58.04
2023-01-10T04:13:09.865Z,58.02
2023-01-10T04:14:12.833Z,57.98
2023-01-10T04:15:15.811Z,57.90
2023-01-10T04:16:19.806Z,58.03
2023-01-10T04:17:23.143Z,57.97
2023-01-10T04:18:26.326Z,57.84
2023-01-10T04:19:29.293Z,57.80
2023-01-10T04:20:32.331Z,57.95
2023-01-10T04:21:35.284Z,57.84
2023-01-10T04:22:38.369Z,57.99
2023-01-10T04:23:41.423Z,57.92
2023-01-10T04:24:46.244Z,58.00
2023-01-10T04:25:49.219Z,58.03
2023-01-10T04:26:52.172Z,57.90
2023-01-10T04:27:55.228Z,58.03
2023-01-10T04:28:58.197Z,57.88
2023-01-10T04:30:01.156Z,57.91
2023-01-10T04:31:04.655Z,58.03
2023-01-10T04:32:07.620Z,57.92
2023-01-10T04:33:11.971Z,58.08
2023-01-10T04:34:15.218Z,58.05
2023-01-10T04:35:18.100Z,58.08
2023-01-10T04:36:21.180Z,58.07
2023-01-10T04:37:24.120Z,58.09
2023-01-10T04:38:27.059Z,58.12
2023-01-10T04:39:30.002Z,58.00
2023-01-10T04:40:32.943Z,58.03
2023-01-10T04:41:36.127Z,58.13
2023-01-10T04:42:39.071Z,58.14
2023-01-10T04:43:42.009Z,58.05
2023-01-10T04:44:44.922Z,58.02
2023-01-10T04:45:47.837Z,58.11
2023-01-10T04:46:50.744Z,58.14
2023-01-10T04:47:55.600Z,58.15
2023-01-10T04:48:58.939Z,58.05
2023-01-10T04:50:02.119Z,58.08
2023-01-10T04:51:05.260Z,58.08
2023-01-10T04:52:08.298Z,58.17
2023-01-10T04:53:11.327Z,58.17
2023-01-10T04:54:14.285Z,58.03
2023-01-10T04:55:17.334Z,58.13
2023-01-10T04:56:21.770Z,58.11
2023-01-10T04:57:24.809Z,58.10
2023-01-10T04:58:27.722Z,58.11
2023-01-10T04:59:30.779Z,57.99
2023-01-10T05:00:33.913Z,58.03
2023-01-10T05:01:38.557Z,58.15
2023-01-10T05:02:44.771Z,58.16
2023-01-10T05:03:49.211Z,58.16
2023-01-10T05:04:52.294Z,58.05
2023-01-10T05:05:58.001Z,57.98
2023-01-10T05:07:00.982Z,58.11
2023-01-10T05:08:04.290Z,58.10
2023-01-10T05:09:09.378Z,58.06
2023-01-10T05:10:12.658Z,58.05
2023-01-10T05:11:15.585Z,58.03
2023-01-10T05:12:18.500Z,57.93
2023-01-10T05:13:21.644Z,58.03
2023-01-10T05:14:24.668Z,58.01
2023-01-10T05:15:27.696Z,57.97
2023-01-10T05:16:30.891Z,58.00
2023-01-10T05:17:34.001Z,58.00
2023-01-10T05:18:37.031Z,57.99
2023-01-10T05:19:39.944Z,58.00
2023-01-10T05:20:42.976Z,57.94
2023-01-10T05:21:45.926Z,57.89
2023-01-10T05:22:49.142Z,57.94
2023-01-10T05:23:52.072Z,57.87
2023-01-10T05:24:55.032Z,57.95
2023-01-10T05:25:58.066Z,57.91
2023-01-10T05:27:01.228Z,57.86
2023-01-10T05:28:04.506Z,57.87
2023-01-10T05:29:10.873Z,57.83
2023-01-10T05:30:14.349Z,57.73
2023-01-10T05:31:19.238Z,57.81
2023-01-10T05:32:22.360Z,57.77
2023-01-10T05:33:25.415Z,57.76
2023-01-10T05:34:28.492Z,57.74
2023-01-10T05:35:31.467Z,57.61
2023-01-10T05:36:34.412Z,57.63
2023-01-10T05:37:38.152Z,57.63
2023-01-10T05:38:41.250Z,57.77
2023-01-10T05:39:44.191Z,57.76
2023-01-10T05:40:47.333Z,57.70
2023-01-10T05:41:50.391Z,57.66
2023-01-10T05:42:53.533Z,57.68
2023-01-10T05:43:56.472Z,57.66
2023-01-10T05:44:59.432Z,57.63
2023-01-10T05:46:02.473Z,57.51
2023-01-10T05:47:05.453Z,57.65
2023-01-10T05:48:08.550Z,57.61
2023-01-10T05:49:11.544Z,57.60
2023-01-10T05:50:14.962Z,57.58
2023-01-10T05:51:18.000Z,57.48
2023-01-10T05:52:21.232Z,57.50
2023-01-10T05:53:24.192Z,57.46
2023-01-10T05:54:29.006Z,57.40
2023-01-10T05:55:32.229Z,57.32
2023-01-10T05:56:35.143Z,57.27
2023-01-10T05:57:38.174Z,57.31
2023-01-10T05:58:41.278Z,57.11
2023-01-10T05:59:44.511Z,57.23
2023-01-10T06:00:47.789Z,57.26
2023-01-10T06:01:50.864Z,57.26
2023-01-10T06:02:57.130Z,57.28
2023-01-10T06:04:00.426Z,57.25
2023-01-10T06:05:03.635Z,57.09
2023-01-10T06:06:07.015Z,57.11
2023-01-10T06:07:10.052Z,57.08
2023-01-10T06:08:13.105Z,57.14
2023-01-10T06:09:16.189Z,56.97
2023-01-10T06:10:19.155Z,57.08
2023-01-10T06:11:24.538Z,57.08
2023-01-10T06:12:27.672Z,57.08
2023-01-10T06:13:30.709Z,56.95
2023-01-10T06:14:33.642Z,57.08
2023-01-10T06:15:36.791Z,56.89
2023-01-10T06:16:41.261Z,56.81
2023-01-10T06:17:45.012Z,56.83
2023-01-10T06:18:48.050Z,56.66
2023-01-10T06:19:51.755Z,56.63
2023-01-10T06:21:12.709Z,56.63
2023-01-10T06:22:15.815Z,56.79
2023-01-10T06:23:18.875Z,56.65
2023-01-10T06:24:21.948Z,56.64
2023-01-10T06:25:25.045Z,56.70
2023-01-10T06:26:28.099Z,56.64
2023-01-10T06:27:31.016Z,56.55
2023-01-10T06:28:34.028Z,56.55
2023-01-10T06:29:37.009Z,56.70
2023-01-10T06:30:42.633Z,56.58
2023-01-10T06:31:45.722Z,56.57
2023-01-10T06:32:48.763Z,56.66
2023-01-10T06:33:51.784Z,56.53
2023-01-10T06:34:54.896Z,56.49
2023-01-10T06:35:57.889Z,56.49
2023-01-10T06:37:01.207Z,56.51
2023-01-10T06:38:04.550Z,56.49
2023-01-10T06:39:07.667Z,56.31
2023-01-10T06:40:11.598Z,56.35
2023-01-10T06:41:14.917Z,56.21
2023-01-10T06:42:17.888Z,56.25
2023-01-10T06:43:20.941Z,56.30
2023-01-10T06:44:23.890Z,56.32
2023-01-10T06:45:26.819Z,56.20
2023-01-10T06:46:29.783Z,56.16
2023-01-10T06:47:33.024Z,56.29
2023-01-10T06:48:36.860Z,56.29
2023-01-10T06:49:39.982Z,56.11
2023-01-10T06:50:43.320Z,56.12
2023-01-10T06:51:46.433Z,56.13
2023-01-10T06:53:00.137Z,56.21
2023-01-10T06:54:03.092Z,56.21
2023-01-10T06:55:06.711Z,56.07
2023-01-10T06:56:10.365Z,56.08
2023-01-10T06:57:13.413Z,56.02
2023-01-10T06:58:17.882Z,55.94
2023-01-10T06:59:21.047Z,56.04
2023-01-10T07:00:25.551Z,55.94
2023-01-10T07:01:28.545Z,55.94
2023-01-10T07:02:31.663Z,55.93
2023-01-10T07:03:34.840Z,55.95
2023-01-10T07:04:37.789Z,56.06
2023-01-10T07:05:40.851Z,55.91
2023-01-10T07:06:44.044Z,55.93
2023-01-10T07:07:46.985Z,56.03
2023-01-10T07:08:49.926Z,55.95
2023-01-10T07:09:53.092Z,56.03
2023-01-10T07:10:57.750Z,56.00
2023-01-10T07:12:00.697Z,55.84
2023-01-10T07:13:03.819Z,55.93
2023-01-10T07:14:06.882Z,55.77
2023-01-10T07:15:10.520Z,55.77
2023-01-10T07:16:15.703Z,55.72
2023-01-10T07:17:18.966Z,55.71
2023-01-10T07:18:22.157Z,55.72
2023-01-10T07:19:25.274Z,55.65
2023-01-10T07:20:28.807Z,55.53
2023-01-10T07:21:31.841Z,55.56
2023-01-10T07:22:35.048Z,55.71
2023-01-10T07:23:38.554Z,55.66
2023-01-10T07:24:41.596Z,55.75
2023-01-10T07:25:44.600Z,55.75
2023-01-10T07:26:47.771Z,55.62
2023-01-10T07:27:50.861Z,55.61
2023-01-10T07:28:53.778Z,55.71
2023-01-10T07:29:56.749Z,55.58
2023-01-10T07:31:01.418Z,55.58
2023-01-10T07:32:05.186Z,55.69
2023-01-10T07:33:08.240Z,55.52
2023-01-10T07:34:11.740Z,55.58
2023-01-10T07:35:14.715Z,55.57
2023-01-10T07:36:18.202Z,55.58
2023-01-10T07:37:21.195Z,55.49
2023-01-10T07:38:24.211Z,55.55
2023-01-10T07:39:27.307Z,55.58
2023-01-10T07:40:30.451Z,55.52
2023-01-10T07:41:33.600Z,55.53
2023-01-10T07:42:38.454Z,55.49
2023-01-10T07:43:41.379Z,55.48
2023-01-10T07:44:44.545Z,55.54
2023-01-10T07:45:47.516Z,55.45
2023-01-10T07:46:50.542Z,55.43
2023-01-10T07:48:00.939Z,55.43
2023-01-10T07:49:04.001Z,55.55
2023-01-10T07:50:08.073Z,55.42
2023-01-10T07:51:11.092Z,55.40
2023-01-10T07:52:14.033Z,55.42
2023-01-10T07:53:17.195Z,55.46
2023-01-10T07:54:20.386Z,55.58
2023-01-10T07:55:23.234Z,55.59
2023-01-10T07:56:26.216Z,55.53
2023-01-10T07:57:29.244Z,55.63
2023-01-10T07:58:32.752Z,55.61
2023-01-10T07:59:35.935Z,55.64
2023-01-10T08:00:38.945Z,55.63
2023-01-10T08:01:41.985Z,55.65
2023-01-10T08:02:45.902Z,55.57
2023-01-10T08:03:49.176Z,55.62
2023-01-10T08:04:52.141Z,55.79
2023-01-10T08:06:00.570Z,55.77
2023-01-10T08:07:04.424Z,55.67
2023-01-10T08:08:09.324Z,55.68
2023-01-10T08:09:12.400Z,55.80
2023-01-10T08:10:15.667Z,55.76
2023-01-10T08:11:18.907Z,55.77
2023-01-10T08:12:23.995Z,55.79
2023-01-10T08:13:27.073Z,55.79
2023-01-10T08:14:30.240Z,55.81
2023-01-10T08:15:33.135Z,55.82
2023-01-10T08:16:36.195Z,55.65
2023-01-10T08:17:39.146Z,55.60
2023-01-10T08:18:42.728Z,55.57
2023-01-10T08:19:46.105Z,55.57
2023-01-10T08:20:50.795Z,55.33
2023-01-10T08:21:55.058Z,55.44
2023-01-10T08:22:59.067Z,55.31
2023-01-10T08:24:02.121Z,55.34
2023-01-10T08:25:05.308Z,55.26
2023-01-10T08:26:08.497Z,55.22
2023-01-10T08:27:11.699Z,55.18
2023-01-10T08:28:14.869Z,55.26
2023-01-10T08:29:18.241Z,55.26
2023-01-10T08:30:21.335Z,55.18
2023-01-10T08:31:24.698Z,55.29
2023-01-10T08:32:27.714Z,55.14
2023-01-10T08:33:30.814Z,55.13
2023-01-10T08:34:33.854Z,55.26
2023-01-10T08:35:39.597Z,55.25
2023-01-10T08:36:42.979Z,55.12
2023-01-10T08:37:46.013Z,55.16
2023-01-10T08:38:50.498Z,55.26
2023-01-10T08:39:53.627Z,55.16
2023-01-10T08:40:57.900Z,55.08
2023-01-10T08:42:01.423Z,54.98
2023-01-10T08:43:07.516Z,54.90
2023-01-10T08:44:12.600Z,55.01
2023-01-10T08:45:15.773Z,55.04
2023-01-10T08:46:19.899Z,54.95
2023-01-10T08:47:23.103Z,54.93
2023-01-10T08:48:26.056Z,54.89
2023-01-10T08:49:29.164Z,54.85
2023-01-10T08:50:32.658Z,54.92
2023-01-10T08:51:35.829Z,54.93
2023-01-10T08:52:39.252Z,54.81
2023-01-10T08:53:42.516Z,54.74
2023-01-10T08:54:45.700Z,54.70
2023-01-10T08:55:49.314Z,54.72
2023-01-10T08:56:52.633Z,54.77
2023-01-10T08:57:59.283Z,54.80
2023-01-10T08:59:02.505Z,54.74
2023-01-10T09:00:06.651Z,54.66
2023-01-10T09:01:11.501Z,54.54
2023-01-10T09:02:14.716Z,54.35
2023-01-10T09:03:18.675Z,54.34
2023-01-10T09:04:21.765Z,54.25
2023-01-10T09:05:28.256Z,54.25
2023-01-10T09:06:30.726Z,54.40
2023-01-10T09:07:33.809Z,54.34
2023-01-10T09:08:37.362Z,54.43
2023-01-10T09:09:40.536Z,54.51
2023-01-10T09:10:43.620Z,54.57
2023-01-10T09:11:46.628Z,54.60
2023-01-10T09:12:56.312Z,54.59
2023-01-10T09:13:59.366Z,54.64
2023-01-10T09:15:02.398Z,54.54
2023-01-10T09:16:05.699Z,54.29
2023-01-10T09:17:08.609Z,54.13
2023-01-10T09:18:13.829Z,54.04
2023-01-10T09:19:17.135Z,54.13
2023-01-10T09:20:20.428Z,54.03
2023-01-10T09:21:23.507Z,54.13
2023-01-10T09:22:26.840Z,54.15
2023-01-10T09:23:29.895Z,54.08
2023-01-10T09:24:32.917Z,54.25
2023-01-10T09:25:36.283Z,54.08
2023-01-10T09:26:39.429Z,54.01
2023-01-10T09:27:42.525Z,53.95
2023-01-10T09:28:47.420Z,53.95
2023-01-10T09:29:50.133Z,54.02
2023-01-10T09:30:53.196Z,53.93
2023-01-10T09:31:56.196Z,53.90
2023-01-10T09:32:59.467Z,53.94
2023-01-10T09:34:02.530Z,53.88
2023-01-10T09:37:37.372Z,53.83
2023-01-10T09:38:40.326Z,53.91
2023-01-10T09:39:43.471Z,53.94
2023-01-10T09:41:20.051Z,54.12
2023-01-10T09:42:56.559Z,54.10
2023-01-10T09:44:05.931Z,54.13
2023-01-10T09:45:18.668Z,54.14
2023-01-10T09:46:40.542Z,54.22
2023-01-10T09:48:04.922Z,54.31
2023-01-10T09:49:31.396Z,54.41
2023-01-10T09:50:56.078Z,54.25
2023-01-10T09:52:00.300Z,54.22
2023-01-10T09:53:15.937Z,54.29
2023-01-10T09:54:31.658Z,54.31
2023-01-10T09:55:37.739Z,54.26
2023-01-10T09:56:41.421Z,54.31
2023-01-10T09:57:45.090Z,54.16
2023-01-10T09:58:49.441Z,54.08
2023-01-10T09:59:54.005Z,54.15
2023-01-10T10:01:00.030Z,54.11
2023-01-10T10:02:24.937Z,54.07
2023-01-10T10:03:46.959Z,53.91
2023-01-10T10:06:11.942Z,53.76
2023-01-10T10:07:14.622Z,53.72
2023-01-10T10:08:19.667Z,53.77
2023-01-10T10:09:29.399Z,53.89
2023-01-10T10:10:41.895Z,53.89
2023-01-10T10:12:03.695Z,53.73
2023-01-10T10:13:28.188Z,53.72
2023-01-10T10:14:33.512Z,53.77
2023-01-10T10:15:43.214Z,53.80
2023-01-10T10:16:55.499Z,53.81
2023-01-10T10:18:18.740Z,53.79
2023-01-10T10:19:37.209Z,53.78
2023-01-10T10:20:53.066Z,53.66
2023-01-10T10:22:14.534Z,53.79
2023-01-10T10:23:36.028Z,53.66
2023-01-10T10:25:01.868Z,53.70
2023-01-10T10:26:14.198Z,53.67
2023-01-10T10:27:26.390Z,53.54
2023-01-10T10:29:05.735Z,53.54
2023-01-10T10:30:15.176Z,53.58
2023-01-10T10:31:41.591Z,53.65
2023-01-10T10:33:03.079Z,53.67
2023-01-10T10:34:18.371Z,53.64
2023-01-10T10:35:24.943Z,53.54
2023-01-10T10:38:00.889Z,53.48
2023-01-10T10:39:05.486Z,53.50
2023-01-10T10:40:18.362Z,53.38
2023-01-10T10:41:31.146Z,53.20
2023-01-10T10:42:37.698Z,53.18
2023-01-10T10:43:41.237Z,53.13
2023-01-10T10:44:53.604Z,53.24
2023-01-10T10:46:15.256Z,53.11
2023-01-10T10:47:20.939Z,53.02
2023-01-10T10:48:27.231Z,52.92
2023-01-10T10:49:33.764Z,52.89
2023-01-10T10:50:40.616Z,52.93
2023-01-10T10:51:52.739Z,53.03
2023-01-10T10:52:55.986Z,53.07
2023-01-10T10:53:59.242Z,53.09
2023-01-10T10:55:05.307Z,52.93
2023-01-10T10:56:12.166Z,52.84
2023-01-10T10:57:15.568Z,52.82
2023-01-10T10:58:18.786Z,52.82
2023-01-10T10:59:21.956Z,52.76
2023-01-10T11:00:26.772Z,52.85
2023-01-10T11:01:30.160Z,52.83
2023-01-10T11:02:42.432Z,52.84
2023-01-10T11:03:57.629Z,52.74
2023-01-10T11:05:06.808Z,52.73
2023-01-10T11:06:10.689Z,52.68
2023-01-10T11:07:17.286Z,52.65
2023-01-10T11:08:22.406Z,52.64
2023-01-10T11:09:29.505Z,52.81
2023-01-10T11:10:36.303Z,52.78
2023-01-10T11:11:46.790Z,52.84
2023-01-10T11:12:52.444Z,52.80
2023-01-10T11:13:58.249Z,52.67
2023-01-10T11:15:01.414Z,52.71
2023-01-10T11:16:06.345Z,52.57
2023-01-10T11:17:19.077Z,52.70
2023-01-10T11:18:25.109Z,52.61
2023-01-10T11:19:29.677Z,52.60
2023-01-10T11:20:34.465Z,52.63
2023-01-10T11:21:40.340Z,52.67
2023-01-10T11:22:48.932Z,52.53
2023-01-10T11:23:57.317Z,52.61
2023-01-10T11:25:02.160Z,52.57
2023-01-10T11:26:08.110Z,52.45
2023-01-10T11:27:17.704Z,52.41
2023-01-10T11:28:24.237Z,52.52
2023-01-10T11:29:45.604Z,52.54
2023-01-10T11:30:50.393Z,52.55
2023-01-10T11:31:56.259Z,52.55
2023-01-10T11:33:05.836Z,52.37
2023-01-10T11:34:27.701Z,52.35
2023-01-10T11:35:40.894Z,52.45
2023-01-10T11:36:56.660Z,52.42
2023-01-10T11:38:21.500Z,52.37
2023-01-10T11:39:25.141Z,52.39
2023-01-10T11:40:37.359Z,52.44
2023-01-10T11:41:40.663Z,52.49
2023-01-10T11:42:44.287Z,52.67
2023-01-10T11:43:47.276Z,52.63
2023-01-10T11:44:50.540Z,52.68
2023-01-10T11:46:01.790Z,52.63
2023-01-10T11:47:08.434Z,52.63
2023-01-10T11:48:47.980Z,52.78
2023-01-10T11:49:40.877Z,52.66
2023-01-10T11:50:47.810Z,52.62
2023-01-10T11:51:54.275Z,52.67
2023-01-10T11:52:57.774Z,52.62
2023-01-10T11:54:03.242Z,52.52
2023-01-10T11:55:07.735Z,52.50
2023-01-10T11:56:14.856Z,52.63
2023-01-10T11:57:24.563Z,52.49
2023-01-10T11:58:32.815Z,52.60
2023-01-10T11:59:37.814Z,52.60
2023-01-10T12:00:47.592Z,52.47
2023-01-10T12:02:04.440Z,52.47
2023-01-10T12:03:29.335Z,52.51
2023-01-10T12:04:36.880Z,52.59
2023-01-10T12:05:40.239Z,52.67
2023-01-10T12:06:45.606Z,52.57
2023-01-10T12:08:08.345Z,52.55
2023-01-10T12:09:34.821Z,52.57
2023-01-10T12:10:38.005Z,52.50
2023-01-10T12:11:41.106Z,52.58
2023-01-10T12:12:58.867Z,52.66
2023-01-10T12:14:02.341Z,52.76
2023-01-10T12:15:25.405Z,52.79
2023-01-10T12:16:30.600Z,52.92
2023-01-10T12:17:37.691Z,52.81
2023-01-10T12:18:40.655Z,52.75
2023-01-10T12:19:43.728Z,52.71
2023-01-10T12:20:52.147Z,52.79
2023-01-10T12:22:01.549Z,52.75
2023-01-10T12:23:07.866Z,52.78
2023-01-10T12:24:17.408Z,52.74
2023-01-10T12:25:23.922Z,52.67
2023-01-10T12:26:30.852Z,52.72
2023-01-10T12:27:33.917Z,52.75
2023-01-10T12:28:37.214Z,52.58
2023-01-10T12:29:49.688Z,52.53
2023-01-10T12:30:55.210Z,52.65
2023-01-10T12:32:00.465Z,52.57
2023-01-10T12:33:13.120Z,52.68
2023-01-10T12:34:22.313Z,52.72
2023-01-10T12:35:40.821Z,52.75
2023-01-10T12:36:56.724Z,52.65
2023-01-10T12:38:09.467Z,52.62
2023-01-10T12:39:16.103Z,52.57
2023-01-10T12:40:34.608Z,52.55
2023-01-10T12:42:17.792Z,52.49
2023-01-10T12:43:54.386Z,52.56
2023-01-10T12:45:12.823Z,52.30
2023-01-10T12:47:00.438Z,52.17
2023-01-10T12:48:13.166Z,52.05
2023-01-10T12:50:36.330Z,51.98
2023-01-10T12:51:40.653Z,51.98
2023-01-10T12:52:47.964Z,51.85
2023-01-10T12:53:54.601Z,51.75
2023-01-10T12:54:58.433Z,51.68
2023-01-10T12:56:05.868Z,51.56
2023-01-10T12:57:24.339Z,51.46
2023-01-10T13:00:01.549Z,51.53
2023-01-10T13:01:06.622Z,51.33
2023-01-10T13:02:22.525Z,51.41
2023-01-10T13:03:28.788Z,51.33
2023-01-10T13:04:35.287Z,51.31
2023-01-10T13:05:38.323Z,51.25
2023-01-10T13:06:43.783Z,51.16
2023-01-10T13:07:48.783Z,51.22
2023-01-10T13:08:52.370Z,51.08
2023-01-10T13:09:56.036Z,50.94
2023-01-10T13:11:00.933Z,51.00
2023-01-10T13:12:07.592Z,50.94
2023-01-10T13:13:14.106Z,50.84
2023-01-10T13:14:20.674Z,50.77
2023-01-10T13:15:29.896Z,50.83
2023-01-10T13:16:51.490Z,50.63
2023-01-10T13:18:07.304Z,50.65
2023-01-10T13:19:14.483Z,50.46
2023-01-10T13:20:24.190Z,50.38
2023-01-10T13:21:28.042Z,50.46
2023-01-10T13:22:34.579Z,50.27
2023-01-10T13:23:47.396Z,50.31
2023-01-10T13:25:01.200Z,50.17
2023-01-10T13:26:08.540Z,50.18
2023-01-10T13:27:15.171Z,50.15
2023-01-10T13:28:25.326Z,50.19
2023-01-10T13:29:40.730Z,50.08
2023-01-10T13:30:46.183Z,50.05
2023-01-10T13:31:51.942Z,49.90
2023-01-10T13:33:10.191Z,49.87
2023-01-10T13:34:15.947Z,50.00
2023-01-10T13:35:19.581Z,49.92
2023-01-10T13:36:26.323Z,49.79
2023-01-10T13:37:33.193Z,49.56
2023-01-10T13:39:57.011Z,49.51
2023-01-10T13:41:10.367Z,49.40
2023-01-10T15:16:41.594Z,51.78
2023-01-10T15:17:46.411Z,51.62
2023-01-10T15:18:50.431Z,51.57
2023-01-10T15:19:54.167Z,51.61
2023-01-10T15:20:57.748Z,51.43
2023-01-10T15:22:01.172Z,51.47
2023-01-10T15:24:33.267Z,51.41
2023-01-10T15:25:38.440Z,51.23
2023-01-10T15:26:41.614Z,51.21
2023-01-10T15:27:47.419Z,51.21
2023-01-10T15:29:06.381Z,51.16
2023-01-10T15:30:10.511Z,51.20
2023-01-10T15:31:15.493Z,51.16
2023-01-10T15:32:31.138Z,51.13
2023-01-10T15:33:36.540Z,51.23
2023-01-10T15:34:41.415Z,51.22
2023-01-10T15:35:44.586Z,51.07
2023-01-10T15:36:54.321Z,51.12
2023-01-10T15:38:20.392Z,50.99
2023-01-10T15:39:26.963Z,50.85
2023-01-10T15:40:33.123Z,50.86
2023-01-10T15:41:37.615Z,50.73
2023-01-10T15:42:40.637Z,50.72
2023-01-10T15:43:43.767Z,50.76
2023-01-10T15:44:54.720Z,50.61
2023-01-10T15:45:59.538Z,50.58
2023-01-10T15:47:02.876Z,50.57
2023-01-10T15:48:08.230Z,50.54
2023-01-10T15:49:25.775Z,50.57
2023-01-10T15:50:39.462Z,50.45
2023-01-10T15:51:46.111Z,50.38
2023-01-10T15:52:52.073Z,50.30
2023-01-10T15:54:04.815Z,50.38
2023-01-10T15:55:38.955Z,50.25
2023-01-10T15:56:52.375Z,50.29
2023-01-10T15:57:55.493Z,50.28
2023-01-10T15:59:00.062Z,50.30
2023-01-10T16:00:03.602Z,50.36
2023-01-10T16:01:12.288Z,50.25
2023-01-10T16:02:31.007Z,50.18
2023-01-10T16:03:40.110Z,50.14
2023-01-10T16:04:46.619Z,49.99
2023-01-10T16:05:58.863Z,49.99
2023-01-10T16:07:24.263Z,50.00
2023-01-10T16:08:34.633Z,50.12
2023-01-10T16:09:39.220Z,50.20